sensor_id;sensor_type;location;lat;lon;timestamp;pressure;altitude;pressure_sealevel;temperature;humidity
32197;BME280;18697;42.770;23.400;2023-03-22T00:01:54;95285.31;;;12.62;80.17
32197;BME280;18697;42.770;23.400;2023-03-22T00:04:20;95282.44;;;12.56;79.47
32197;BME280;18697;42.770;23.400;2023-03-22T00:06:45;95279.47;;;12.60;79.88
32197;BME280;18697;42.770;23.400;2023-03-22T00:09:10;95284.03;;;12.63;80.22
32197;BME280;18697;42.770;23.400;2023-03-22T00:11:36;95285.09;;;12.65;79.80
32197;BME280;18697;42.770;23.400;2023-03-22T00:14:01;95280.44;;;12.57;79.89
32197;BME280;18697;42.770;23.400;2023-03-22T00:16:27;95282.75;;;12.58;79.90
32197;BME280;18697;42.770;23.400;2023-03-22T00:18:52;95282.78;;;12.64;80.36
32197;BME280;18697;42.770;23.400;2023-03-22T00:21:17;95287.66;;;12.69;80.59
32197;BME280;18697;42.770;23.400;2023-03-22T00:23:43;95279.47;;;12.60;80.24
32197;BME280;18697;42.770;23.400;2023-03-22T00:26:09;95280.75;;;12.64;79.76
32197;BME280;18697;42.770;23.400;2023-03-22T00:28:35;95282.94;;;12.55;79.29
32197;BME280;18697;42.770;23.400;2023-03-22T00:31:01;95275.06;;;12.53;79.61
32197;BME280;18697;42.770;23.400;2023-03-22T00:33:28;95270.47;;;12.50;79.18
32197;BME280;18697;42.770;23.400;2023-03-22T00:36:00;95269.34;;;12.42;79.49
32197;BME280;18697;42.770;23.400;2023-03-22T00:38:26;95266.28;;;12.40;79.70
32197;BME280;18697;42.770;23.400;2023-03-22T00:41:18;95263.88;;;12.33;79.48
32197;BME280;18697;42.770;23.400;2023-03-22T00:43:46;95260.81;;;12.31;79.57
32197;BME280;18697;42.770;23.400;2023-03-22T00:46:12;95258.25;;;12.27;79.44
32197;BME280;18697;42.770;23.400;2023-03-22T00:48:39;95265.53;;;12.25;79.36
32197;BME280;18697;42.770;23.400;2023-03-22T00:51:05;95264.00;;;12.24;79.87
32197;BME280;18697;42.770;23.400;2023-03-22T00:53:31;95256.69;;;12.26;79.93
32197;BME280;18697;42.770;23.400;2023-03-22T00:56:01;95252.09;;;12.23;80.02
32197;BME280;18697;42.770;23.400;2023-03-22T00:58:26;95253.44;;;12.28;79.68
32197;BME280;18697;42.770;23.400;2023-03-22T01:00:52;95253.91;;;12.26;79.75
32197;BME280;18697;42.770;23.400;2023-03-22T01:03:17;95262.28;;;12.26;79.80
32197;BME280;18697;42.770;23.400;2023-03-22T01:05:45;95250.97;;;12.15;80.23
32197;BME280;18697;42.770;23.400;2023-03-22T01:08:13;95245.03;;;12.07;81.09
32197;BME280;18697;42.770;23.400;2023-03-22T01:10:40;95255.19;;;12.10;82.00
32197;BME280;18697;42.770;23.400;2023-03-22T01:13:06;95240.16;;;12.02;82.56
32197;BME280;18697;42.770;23.400;2023-03-22T01:15:32;95254.06;;;12.02;83.30
32197;BME280;18697;42.770;23.400;2023-03-22T01:17:58;95252.91;;;11.94;84.27
32197;BME280;18697;42.770;23.400;2023-03-22T01:20:24;95246.78;;;11.90;84.87
32197;BME280;18697;42.770;23.400;2023-03-22T01:22:50;95244.41;;;11.83;85.51
32197;BME280;18697;42.770;23.400;2023-03-22T01:25:15;95244.88;;;11.67;85.83
32197;BME280;18697;42.770;23.400;2023-03-22T01:27:41;95249.47;;;11.55;86.19
32197;BME280;18697;42.770;23.400;2023-03-22T01:30:08;95254.47;;;11.51;86.55
32197;BME280;18697;42.770;23.400;2023-03-22T01:32:34;95240.66;;;11.42;86.39
32197;BME280;18697;42.770;23.400;2023-03-22T01:35:00;95237.47;;;11.34;86.79
32197;BME280;18697;42.770;23.400;2023-03-22T01:37:26;95240.94;;;11.29;86.86
32197;BME280;18697;42.770;23.400;2023-03-22T01:39:54;95241.00;;;11.20;87.11
32197;BME280;18697;42.770;23.400;2023-03-22T01:42:20;95241.97;;;11.02;87.96
32197;BME280;18697;42.770;23.400;2023-03-22T01:50:09;95235.19;;;10.79;90.02
32197;BME280;18697;42.770;23.400;2023-03-22T01:52:35;95230.31;;;10.74;90.42
32197;BME280;18697;42.770;23.400;2023-03-22T01:55:03;95235.16;;;10.65;90.29
32197;BME280;18697;42.770;23.400;2023-03-22T01:57:31;95233.22;;;10.56;90.96
32197;BME280;18697;42.770;23.400;2023-03-22T01:59:58;95234.56;;;10.61;91.29
32197;BME280;18697;42.770;23.400;2023-03-22T02:02:25;95240.41;;;10.63;91.38
32197;BME280;18697;42.770;23.400;2023-03-22T02:04:55;95239.34;;;10.60;91.49
32197;BME280;18697;42.770;23.400;2023-03-22T02:07:22;95244.56;;;10.67;91.70
32197;BME280;18697;42.770;23.400;2023-03-22T02:09:54;95245.13;;;10.71;91.39
32197;BME280;18697;42.770;23.400;2023-03-22T02:32:44;95251.22;;;10.61;91.37
32197;BME280;18697;42.770;23.400;2023-03-22T02:37:48;95252.22;;;10.48;91.91
32197;BME280;18697;42.770;23.400;2023-03-22T02:40:33;95256.72;;;10.46;92.46
32197;BME280;18697;42.770;23.400;2023-03-22T02:45:56;95256.81;;;10.37;93.27
32197;BME280;18697;42.770;23.400;2023-03-22T02:48:35;95265.13;;;10.37;93.86
32197;BME280;18697;42.770;23.400;2023-03-22T02:51:08;95268.84;;;10.34;93.61
32197;BME280;18697;42.770;23.400;2023-03-22T02:53:43;95268.84;;;10.34;93.64
32197;BME280;18697;42.770;23.400;2023-03-22T02:56:21;95271.25;;;10.41;93.72
32197;BME280;18697;42.770;23.400;2023-03-22T02:58:51;95271.06;;;10.44;93.60
32197;BME280;18697;42.770;23.400;2023-03-22T03:01:37;95274.16;;;10.46;93.30
32197;BME280;18697;42.770;23.400;2023-03-22T03:04:08;95267.69;;;10.40;93.14
32197;BME280;18697;42.770;23.400;2023-03-22T03:06:39;95265.69;;;10.41;93.03
32197;BME280;18697;42.770;23.400;2023-03-22T03:09:11;95265.94;;;10.28;93.15
32197;BME280;18697;42.770;23.400;2023-03-22T03:11:37;95263.03;;;10.23;94.08
32197;BME280;18697;42.770;23.400;2023-03-22T03:14:03;95266.44;;;10.17;94.40
32197;BME280;18697;42.770;23.400;2023-03-22T03:16:29;95267.38;;;10.14;94.66
32197;BME280;18697;42.770;23.400;2023-03-22T03:19:22;95270.31;;;10.11;95.20
32197;BME280;18697;42.770;23.400;2023-03-22T03:22:00;95274.63;;;10.12;95.51
32197;BME280;18697;42.770;23.400;2023-03-22T03:24:36;95267.25;;;10.09;95.35
32197;BME280;18697;42.770;23.400;2023-03-22T03:29:57;95268.34;;;10.02;95.99
32197;BME280;18697;42.770;23.400;2023-03-22T03:32:39;95267.41;;;10.05;96.25
32197;BME280;18697;42.770;23.400;2023-03-22T03:35:17;95272.97;;;10.05;96.35
32197;BME280;18697;42.770;23.400;2023-03-22T03:37:51;95271.09;;;10.11;96.19
32197;BME280;18697;42.770;23.400;2023-03-22T03:40:25;95278.47;;;10.14;96.03
32197;BME280;18697;42.770;23.400;2023-03-22T03:42:53;95271.69;;;10.15;95.68
32197;BME280;18697;42.770;23.400;2023-03-22T03:45:20;95274.28;;;10.28;95.53
32197;BME280;18697;42.770;23.400;2023-03-22T03:47:47;95283.97;;;10.33;95.21
32197;BME280;18697;42.770;23.400;2023-03-22T03:50:20;95279.81;;;10.28;94.40
32197;BME280;18697;42.770;23.400;2023-03-22T03:52:45;95278.59;;;10.29;94.67
32197;BME280;18697;42.770;23.400;2023-03-22T03:55:10;95280.25;;;10.36;94.68
32197;BME280;18697;42.770;23.400;2023-03-22T03:57:36;95284.75;;;10.33;94.10
32197;BME280;18697;42.770;23.400;2023-03-22T04:00:02;95281.69;;;10.22;94.19
32197;BME280;18697;42.770;23.400;2023-03-22T04:02:28;95295.72;;;10.18;94.52
32197;BME280;18697;42.770;23.400;2023-03-22T04:04:53;95293.88;;;10.15;95.14
32197;BME280;18697;42.770;23.400;2023-03-22T04:07:18;95286.50;;;10.12;95.50
32197;BME280;18697;42.770;23.400;2023-03-22T04:09:44;95291.75;;;10.10;95.77
32197;BME280;18697;42.770;23.400;2023-03-22T04:12:09;95300.66;;;10.14;95.64
32197;BME280;18697;42.770;23.400;2023-03-22T04:14:35;95306.38;;;10.11;95.81
32197;BME280;18697;42.770;23.400;2023-03-22T04:17:00;95291.56;;;10.14;95.46
32197;BME280;18697;42.770;23.400;2023-03-22T04:19:26;95301.44;;;10.15;94.90
32197;BME280;18697;42.770;23.400;2023-03-22T04:21:51;95298.84;;;10.11;95.00
32197;BME280;18697;42.770;23.400;2023-03-22T04:24:17;95300.53;;;10.09;95.41
32197;BME280;18697;42.770;23.400;2023-03-22T04:26:42;95306.56;;;10.07;95.41
32197;BME280;18697;42.770;23.400;2023-03-22T04:29:08;95296.22;;;10.08;95.42
32197;BME280;18697;42.770;23.400;2023-03-22T04:31:33;95300.72;;;10.05;95.95
32197;BME280;18697;42.770;23.400;2023-03-22T04:34:03;95308.41;;;10.10;95.89
32197;BME280;18697;42.770;23.400;2023-03-22T04:36:33;95301.44;;;10.15;95.39
32197;BME280;18697;42.770;23.400;2023-03-22T04:39:04;95302.19;;;10.25;94.78
32197;BME280;18697;42.770;23.400;2023-03-22T04:41:31;95293.69;;;10.28;94.74
32197;BME280;18697;42.770;23.400;2023-03-22T04:43:56;95304.88;;;10.43;93.94
32197;BME280;18697;42.770;23.400;2023-03-22T04:46:26;95301.16;;;10.46;93.05
32197;BME280;18697;42.770;23.400;2023-03-22T04:48:52;95307.88;;;10.54;92.69
32197;BME280;18697;42.770;23.400;2023-03-22T04:51:17;95304.00;;;10.61;92.08
32197;BME280;18697;42.770;23.400;2023-03-22T04:53:42;95316.16;;;10.63;91.42
32197;BME280;18697;42.770;23.400;2023-03-22T04:56:10;95315.69;;;10.65;91.35
32197;BME280;18697;42.770;23.400;2023-03-22T04:58:38;95313.22;;;10.67;91.33
32197;BME280;18697;42.770;23.400;2023-03-22T05:01:08;95321.84;;;10.69;90.96
32197;BME280;18697;42.770;23.400;2023-03-22T05:03:34;95315.94;;;10.76;90.96
32197;BME280;18697;42.770;23.400;2023-03-22T05:06:01;95326.09;;;10.79;90.42
32197;BME280;18697;42.770;23.400;2023-03-22T05:08:28;95319.78;;;10.78;90.02
32197;BME280;18697;42.770;23.400;2023-03-22T05:10:56;95319.47;;;10.76;90.22
32197;BME280;18697;42.770;23.400;2023-03-22T05:13:24;95330.41;;;10.80;90.21
32197;BME280;18697;42.770;23.400;2023-03-22T05:15:50;95327.88;;;10.91;90.20
32197;BME280;18697;42.770;23.400;2023-03-22T05:18:16;95336.34;;;10.97;89.57
32197;BME280;18697;42.770;23.400;2023-03-22T05:20:42;95340.47;;;11.01;89.16
32197;BME280;18697;42.770;23.400;2023-03-22T05:23:08;95337.56;;;10.96;88.83
32197;BME280;18697;42.770;23.400;2023-03-22T05:25:37;95341.06;;;11.05;88.86
32197;BME280;18697;42.770;23.400;2023-03-22T05:28:03;95342.78;;;11.03;89.05
32197;BME280;18697;42.770;23.400;2023-03-22T05:30:29;95344.91;;;11.08;89.06
32197;BME280;18697;42.770;23.400;2023-03-22T05:33:13;95350.28;;;11.11;88.86
32197;BME280;18697;42.770;23.400;2023-03-22T05:35:41;95355.75;;;11.20;88.56
32197;BME280;18697;42.770;23.400;2023-03-22T05:38:07;95356.81;;;11.23;88.15
32197;BME280;18697;42.770;23.400;2023-03-22T05:40:33;95352.78;;;11.24;88.23
32197;BME280;18697;42.770;23.400;2023-03-22T05:42:58;95358.28;;;11.33;87.50
32197;BME280;18697;42.770;23.400;2023-03-22T05:45:25;95356.84;;;11.38;87.62
32197;BME280;18697;42.770;23.400;2023-03-22T05:47:50;95350.41;;;11.32;87.34
32197;BME280;18697;42.770;23.400;2023-03-22T05:50:18;95352.84;;;11.39;87.39
32197;BME280;18697;42.770;23.400;2023-03-22T05:52:44;95357.63;;;11.38;87.34
32197;BME280;18697;42.770;23.400;2023-03-22T05:55:15;95365.00;;;11.41;87.10
32197;BME280;18697;42.770;23.400;2023-03-22T05:57:42;95365.97;;;11.38;87.13
32197;BME280;18697;42.770;23.400;2023-03-22T06:00:11;95365.97;;;11.38;87.31
32197;BME280;18697;42.770;23.400;2023-03-22T06:02:41;95374.13;;;11.42;87.87
32197;BME280;18697;42.770;23.400;2023-03-22T06:05:08;95369.69;;;11.35;87.04
32197;BME280;18697;42.770;23.400;2023-03-22T06:07:36;95369.34;;;11.42;86.68
32197;BME280;18697;42.770;23.400;2023-03-22T06:10:02;95373.00;;;11.48;87.28
32197;BME280;18697;42.770;23.400;2023-03-22T06:12:29;95366.78;;;11.53;87.37
32197;BME280;18697;42.770;23.400;2023-03-22T06:14:54;95385.28;;;11.57;87.17
32197;BME280;18697;42.770;23.400;2023-03-22T06:17:20;95384.91;;;11.64;86.97
32197;BME280;18697;42.770;23.400;2023-03-22T06:19:45;95384.91;;;11.64;86.79
32197;BME280;18697;42.770;23.400;2023-03-22T06:22:11;95382.78;;;11.59;87.19
32197;BME280;18697;42.770;23.400;2023-03-22T06:24:37;95384.13;;;11.48;87.21
32197;BME280;18697;42.770;23.400;2023-03-22T06:27:05;95378.19;;;11.56;87.16
32197;BME280;18697;42.770;23.400;2023-03-22T06:29:30;95372.16;;;11.57;86.72
32197;BME280;18697;42.770;23.400;2023-03-22T06:31:55;95389.13;;;11.59;86.44
32197;BME280;18697;42.770;23.400;2023-03-22T06:34:21;95390.44;;;11.49;86.01
32197;BME280;18697;42.770;23.400;2023-03-22T06:36:46;95392.16;;;11.46;86.47
32197;BME280;18697;42.770;23.400;2023-03-22T06:39:11;95392.16;;;11.46;86.43
32197;BME280;18697;42.770;23.400;2023-03-22T06:41:37;95389.97;;;11.50;87.17
32197;BME280;18697;42.770;23.400;2023-03-22T06:44:02;95398.03;;;11.48;86.85
32197;BME280;18697;42.770;23.400;2023-03-22T06:46:27;95398.03;;;11.48;86.43
32197;BME280;18697;42.770;23.400;2023-03-22T06:48:53;95409.72;;;11.52;86.90
32197;BME280;18697;42.770;23.400;2023-03-22T06:51:18;95403.69;;;11.54;85.96
32197;BME280;18697;42.770;23.400;2023-03-22T06:53:44;95406.28;;;11.58;85.38
32197;BME280;18697;42.770;23.400;2023-03-22T06:56:10;95409.94;;;11.64;85.29
32197;BME280;18697;42.770;23.400;2023-03-22T06:58:35;95403.16;;;11.65;85.23
32197;BME280;18697;42.770;23.400;2023-03-22T07:01:01;95411.41;;;11.74;86.07
32197;BME280;18697;42.770;23.400;2023-03-22T07:03:26;95412.19;;;11.74;85.96
32197;BME280;18697;42.770;23.400;2023-03-22T07:05:52;95417.28;;;11.76;85.88
32197;BME280;18697;42.770;23.400;2023-03-22T07:08:17;95421.31;;;11.75;85.77
32197;BME280;18697;42.770;23.400;2023-03-22T07:10:42;95420.72;;;11.71;85.32
32197;BME280;18697;42.770;23.400;2023-03-22T07:13:12;95416.97;;;11.74;85.70
32197;BME280;18697;42.770;23.400;2023-03-22T07:15:37;95420.25;;;11.72;84.41
32197;BME280;18697;42.770;23.400;2023-03-22T07:18:03;95415.81;;;11.66;84.59
32197;BME280;18697;42.770;23.400;2023-03-22T07:20:28;95423.38;;;11.65;84.99
32197;BME280;18697;42.770;23.400;2023-03-22T07:22:53;95426.56;;;11.73;84.49
32197;BME280;18697;42.770;23.400;2023-03-22T07:25:19;95421.19;;;11.69;84.18
32197;BME280;18697;42.770;23.400;2023-03-22T07:27:44;95425.03;;;11.72;83.66
32197;BME280;18697;42.770;23.400;2023-03-22T07:30:10;95428.09;;;11.74;83.44
32197;BME280;18697;42.770;23.400;2023-03-22T07:32:38;95433.44;;;11.87;83.92
32197;BME280;18697;42.770;23.400;2023-03-22T07:35:04;95431.31;;;11.96;84.09
32197;BME280;18697;42.770;23.400;2023-03-22T07:37:30;95448.13;;;12.02;83.37
32197;BME280;18697;42.770;23.400;2023-03-22T07:39:55;95423.94;;;12.08;83.40
32197;BME280;18697;42.770;23.400;2023-03-22T07:42:20;95437.38;;;12.09;83.25
32197;BME280;18697;42.770;23.400;2023-03-22T07:44:45;95440.28;;;12.15;83.17
32197;BME280;18697;42.770;23.400;2023-03-22T07:47:11;95437.00;;;12.16;83.67
32197;BME280;18697;42.770;23.400;2023-03-22T07:49:36;95445.47;;;12.22;83.49
32197;BME280;18697;42.770;23.400;2023-03-22T07:52:02;95439.91;;;12.22;83.14
32197;BME280;18697;42.770;23.400;2023-03-22T07:54:27;95449.59;;;12.27;82.75
32197;BME280;18697;42.770;23.400;2023-03-22T07:56:52;95454.41;;;12.26;82.12
32197;BME280;18697;42.770;23.400;2023-03-22T07:59:18;95449.13;;;12.28;82.37
32197;BME280;18697;42.770;23.400;2023-03-22T08:01:43;95454.97;;;12.30;82.03
32197;BME280;18697;42.770;23.400;2023-03-22T08:04:09;95451.81;;;12.23;82.50
32197;BME280;18697;42.770;23.400;2023-03-22T08:06:34;95456.22;;;12.29;82.67
32197;BME280;18697;42.770;23.400;2023-03-22T08:09:03;95457.00;;;12.30;82.63
32197;BME280;18697;42.770;23.400;2023-03-22T08:11:28;95456.03;;;12.33;82.28
32197;BME280;18697;42.770;23.400;2023-03-22T08:13:54;95460.16;;;12.37;81.87
32197;BME280;18697;42.770;23.400;2023-03-22T08:16:19;95452.28;;;12.36;82.25
32197;BME280;18697;42.770;23.400;2023-03-22T08:18:45;95462.47;;;12.39;81.82
32197;BME280;18697;42.770;23.400;2023-03-22T08:21:10;95467.47;;;12.35;81.54
32197;BME280;18697;42.770;23.400;2023-03-22T08:23:35;95453.91;;;12.28;81.49
32197;BME280;18697;42.770;23.400;2023-03-22T08:26:01;95459.19;;;12.26;82.36
32197;BME280;18697;42.770;23.400;2023-03-22T08:28:26;95465.72;;;12.23;82.66
32197;BME280;18697;42.770;23.400;2023-03-22T08:30:52;95465.72;;;12.23;82.59
32197;BME280;18697;42.770;23.400;2023-03-22T08:33:17;95478.09;;;12.22;81.89
32197;BME280;18697;42.770;23.400;2023-03-22T08:35:46;95476.75;;;12.17;82.61
32197;BME280;18697;42.770;23.400;2023-03-22T08:38:11;95481.06;;;12.18;82.26
32197;BME280;18697;42.770;23.400;2023-03-22T08:40:36;95474.16;;;12.13;81.47
32197;BME280;18697;42.770;23.400;2023-03-22T08:43:02;95467.72;;;12.07;82.53
32197;BME280;18697;42.770;23.400;2023-03-22T08:45:27;95482.03;;;12.15;83.41
32197;BME280;18697;42.770;23.400;2023-03-22T08:47:53;95479.13;;;12.09;83.42
32197;BME280;18697;42.770;23.400;2023-03-22T08:50:18;95472.50;;;12.07;83.53
32197;BME280;18697;42.770;23.400;2023-03-22T08:52:43;95474.06;;;12.08;82.72
32197;BME280;18697;42.770;23.400;2023-03-22T08:55:09;95468.84;;;12.01;81.34
32197;BME280;18697;42.770;23.400;2023-03-22T08:57:35;95469.91;;;12.03;81.55
32197;BME280;18697;42.770;23.400;2023-03-22T09:00:00;95475.66;;;12.00;81.29
32197;BME280;18697;42.770;23.400;2023-03-22T09:02:26;95483.66;;;12.07;81.25
32197;BME280;18697;42.770;23.400;2023-03-22T09:04:52;95483.66;;;12.07;80.77
32197;BME280;18697;42.770;23.400;2023-03-22T09:07:18;95479.03;;;12.04;81.97
32197;BME280;18697;42.770;23.400;2023-03-22T09:09:48;95490.75;;;12.08;82.25
32197;BME280;18697;42.770;23.400;2023-03-22T09:12:14;95488.38;;;12.15;82.37
32197;BME280;18697;42.770;23.400;2023-03-22T09:14:40;95487.91;;;12.17;81.59
32197;BME280;18697;42.770;23.400;2023-03-22T09:17:05;95494.91;;;12.12;81.35
32197;BME280;18697;42.770;23.400;2023-03-22T09:19:31;95495.06;;;12.09;81.26
32197;BME280;18697;42.770;23.400;2023-03-22T09:21:56;95500.81;;;12.05;81.06
32197;BME280;18697;42.770;23.400;2023-03-22T09:24:21;95495.38;;;12.11;81.51
32197;BME280;18697;42.770;23.400;2023-03-22T09:26:47;95500.94;;;12.11;81.30
32197;BME280;18697;42.770;23.400;2023-03-22T09:29:13;95489.63;;;12.14;81.03
32197;BME280;18697;42.770;23.400;2023-03-22T09:31:38;95495.59;;;12.22;81.12
32197;BME280;18697;42.770;23.400;2023-03-22T09:34:04;95497.88;;;12.24;81.93
32197;BME280;18697;42.770;23.400;2023-03-22T09:36:29;95490.38;;;12.15;82.48
32197;BME280;18697;42.770;23.400;2023-03-22T09:38:57;95495.78;;;12.18;82.49
32197;BME280;18697;42.770;23.400;2023-03-22T09:41:43;95494.03;;;12.21;82.29
32197;BME280;18697;42.770;23.400;2023-03-22T09:44:38;95495.59;;;12.52;85.49
32197;BME280;18697;42.770;23.400;2023-03-22T09:47:02;95486.34;;;12.90;84.55
32197;BME280;18697;42.770;23.400;2023-03-22T09:49:37;95493.63;;;13.17;82.75
32197;BME280;18697;42.770;23.400;2023-03-22T09:52:10;95484.50;;;13.16;78.00
32197;BME280;18697;42.770;23.400;2023-03-22T09:54:40;95486.03;;;13.17;75.74
32197;BME280;18697;42.770;23.400;2023-03-22T09:57:17;95488.06;;;13.02;77.13
32197;BME280;18697;42.770;23.400;2023-03-22T10:10:03;95498.44;;;13.92;76.32
32197;BME280;18697;42.770;23.400;2023-03-22T10:15:34;95499.91;;;14.07;72.37
32197;BME280;18697;42.770;23.400;2023-03-22T10:18:10;95506.97;;;14.29;72.41
32197;BME280;18697;42.770;23.400;2023-03-22T10:20:49;95506.28;;;14.34;73.13
32197;BME280;18697;42.770;23.400;2023-03-22T10:23:51;95503.69;;;14.04;71.08
32197;BME280;18697;42.770;23.400;2023-03-22T10:26:31;95496.13;;;13.14;73.31
32197;BME280;18697;42.770;23.400;2023-03-22T10:29:04;95503.72;;;13.49;76.19
32197;BME280;18697;42.770;23.400;2023-03-22T10:31:32;95505.38;;;13.21;72.90
32197;BME280;18697;42.770;23.400;2023-03-22T10:36:27;95501.59;;;13.24;73.87
32197;BME280;18697;42.770;23.400;2023-03-22T10:38:59;95494.56;;;13.28;75.00
32197;BME280;18697;42.770;23.400;2023-03-22T10:41:28;95497.00;;;13.41;75.78
32197;BME280;18697;42.770;23.400;2023-03-22T10:43:59;95493.25;;;13.44;74.95
32197;BME280;18697;42.770;23.400;2023-03-22T10:46:30;95502.47;;;13.50;73.53
32197;BME280;18697;42.770;23.400;2023-03-22T10:48:59;95498.53;;;13.42;74.66
32197;BME280;18697;42.770;23.400;2023-03-22T10:51:29;95492.31;;;13.67;73.04
32197;BME280;18697;42.770;23.400;2023-03-22T10:53:57;95489.78;;;13.69;71.38
32197;BME280;18697;42.770;23.400;2023-03-22T10:56:24;95492.63;;;13.34;71.62
32197;BME280;18697;42.770;23.400;2023-03-22T10:58:50;95496.34;;;12.67;74.64
32197;BME280;18697;42.770;23.400;2023-03-22T11:01:30;95495.25;;;13.08;75.18
32197;BME280;18697;42.770;23.400;2023-03-22T11:04:07;95502.69;;;12.97;74.54
32197;BME280;18697;42.770;23.400;2023-03-22T11:06:38;95497.38;;;13.28;79.31
32197;BME280;18697;42.770;23.400;2023-03-22T11:09:14;95497.16;;;13.52;76.60
32197;BME280;18697;42.770;23.400;2023-03-22T11:14:30;95497.19;;;13.72;75.59
32197;BME280;18697;42.770;23.400;2023-03-22T11:21:58;95487.63;;;13.79;73.65
32197;BME280;18697;42.770;23.400;2023-03-22T11:24:26;95493.78;;;13.83;73.57
32197;BME280;18697;42.770;23.400;2023-03-22T11:29:45;95483.38;;;13.84;73.64
32197;BME280;18697;42.770;23.400;2023-03-22T11:32:25;95487.84;;;13.96;73.46
32197;BME280;18697;42.770;23.400;2023-03-22T11:34:59;95485.69;;;13.85;73.72
32197;BME280;18697;42.770;23.400;2023-03-22T11:37:25;95487.06;;;13.75;75.08
32197;BME280;18697;42.770;23.400;2023-03-22T11:39:58;95486.09;;;13.58;75.10
32197;BME280;18697;42.770;23.400;2023-03-22T11:42:25;95486.22;;;13.48;75.01
32197;BME280;18697;42.770;23.400;2023-03-22T11:44:51;95486.63;;;13.41;75.51
32197;BME280;18697;42.770;23.400;2023-03-22T11:47:17;95489.28;;;13.30;75.27
32197;BME280;18697;42.770;23.400;2023-03-22T11:49:50;95484.78;;;13.18;75.05
32197;BME280;18697;42.770;23.400;2023-03-22T11:52:22;95467.47;;;13.14;75.13
32197;BME280;18697;42.770;23.400;2023-03-22T11:54:49;95468.63;;;13.07;75.50
32197;BME280;18697;42.770;23.400;2023-03-22T11:57:19;95474.44;;;12.89;76.02
32197;BME280;18697;42.770;23.400;2023-03-22T12:02:19;95482.97;;;13.00;76.83
32197;BME280;18697;42.770;23.400;2023-03-22T12:04:49;95473.84;;;13.00;76.82
32197;BME280;18697;42.770;23.400;2023-03-22T12:07:17;95475.25;;;13.10;76.76
32197;BME280;18697;42.770;23.400;2023-03-22T12:09:51;95477.31;;;12.95;75.90
32197;BME280;18697;42.770;23.400;2023-03-22T12:12:24;95473.75;;;12.79;74.61
32197;BME280;18697;42.770;23.400;2023-03-22T12:14:56;95477.31;;;12.95;77.03
32197;BME280;18697;42.770;23.400;2023-03-22T12:17:33;95469.44;;;12.64;76.78
32197;BME280;18697;42.770;23.400;2023-03-22T12:20:09;95470.44;;;12.61;77.98
32197;BME280;18697;42.770;23.400;2023-03-22T12:22:40;95478.75;;;12.75;76.16
32197;BME280;18697;42.770;23.400;2023-03-22T12:25:14;95466.88;;;12.60;75.26
32197;BME280;18697;42.770;23.400;2023-03-22T12:27:43;95472.53;;;12.66;77.04
32197;BME280;18697;42.770;23.400;2023-03-22T12:30:20;95476.56;;;12.21;76.96
32197;BME280;18697;42.770;23.400;2023-03-22T12:35:24;95468.97;;;12.06;77.74
32197;BME280;18697;42.770;23.400;2023-03-22T12:37:54;95464.75;;;12.26;76.57
32197;BME280;18697;42.770;23.400;2023-03-22T12:40:27;95461.78;;;12.14;76.55
32197;BME280;18697;42.770;23.400;2023-03-22T12:43:04;95465.13;;;12.04;76.62
32197;BME280;18697;42.770;23.400;2023-03-22T12:45:51;95469.44;;;12.05;77.35
32197;BME280;18697;42.770;23.400;2023-03-22T12:50:59;95463.94;;;11.96;77.51
32197;BME280;18697;42.770;23.400;2023-03-22T12:53:29;95466.63;;;11.90;77.98
32197;BME280;18697;42.770;23.400;2023-03-22T12:55:57;95468.38;;;12.02;76.14
32197;BME280;18697;42.770;23.400;2023-03-22T12:58:25;95465.78;;;11.99;75.47
32197;BME280;18697;42.770;23.400;2023-03-22T13:00:54;95470.41;;;12.16;75.61
32197;BME280;18697;42.770;23.400;2023-03-22T13:03:28;95470.25;;;12.35;74.71
32197;BME280;18697;42.770;23.400;2023-03-22T13:06:07;95472.75;;;12.33;75.03
32197;BME280;18697;42.770;23.400;2023-03-22T13:09:19;95473.72;;;12.59;75.69
32197;BME280;18697;42.770;23.400;2023-03-22T13:20:20;95474.00;;;12.46;77.90
32197;BME280;18697;42.770;23.400;2023-03-22T13:27:57;95469.84;;;12.12;78.39
32197;BME280;18697;42.770;23.400;2023-03-22T13:30:33;95465.81;;;12.28;80.44
32197;BME280;18697;42.770;23.400;2023-03-22T13:35:45;95455.06;;;12.21;83.12
32197;BME280;18697;42.770;23.400;2023-03-22T13:43:33;95454.19;;;12.15;84.19
32197;BME280;18697;42.770;23.400;2023-03-22T13:46:13;95449.09;;;12.13;86.29
32197;BME280;18697;42.770;23.400;2023-03-22T13:49:39;95452.56;;;12.23;83.96
32197;BME280;18697;42.770;23.400;2023-03-22T13:51:59;95451.22;;;12.48;85.75
32197;BME280;18697;42.770;23.400;2023-03-22T13:54:37;95453.16;;;12.57;84.51
32197;BME280;18697;42.770;23.400;2023-03-22T13:57:15;95455.94;;;12.57;83.16
32197;BME280;18697;42.770;23.400;2023-03-22T14:00:03;95457.88;;;12.50;81.74
32197;BME280;18697;42.770;23.400;2023-03-22T14:02:38;95454.75;;;12.63;83.31
32197;BME280;18697;42.770;23.400;2023-03-22T14:05:19;95455.63;;;12.69;84.03
32197;BME280;18697;42.770;23.400;2023-03-22T14:07:52;95456.13;;;12.53;82.15
32197;BME280;18697;42.770;23.400;2023-03-22T14:10:42;95458.25;;;12.58;82.13
32197;BME280;18697;42.770;23.400;2023-03-22T14:13:29;95460.25;;;12.58;81.60
32197;BME280;18697;42.770;23.400;2023-03-22T14:16:02;95453.06;;;12.51;82.51
32197;BME280;18697;42.770;23.400;2023-03-22T14:18:32;95458.63;;;12.22;80.79
32197;BME280;18697;42.770;23.400;2023-03-22T14:21:02;95466.69;;;12.20;82.32
32197;BME280;18697;42.770;23.400;2023-03-22T14:23:37;95455.84;;;12.36;82.19
32197;BME280;18697;42.770;23.400;2023-03-22T14:26:10;95451.22;;;12.48;82.05
32197;BME280;18697;42.770;23.400;2023-03-22T14:28:38;95454.78;;;12.48;80.35
32197;BME280;18697;42.770;23.400;2023-03-22T14:31:17;95454.97;;;12.60;81.85